Time;durP1;ratioP1;P1;durP2;ratioP2;P2;SDS_P1;SDS_P2;PMS_P1;PMS_P2;Temp;Humidity;BMP_temperature;BMP_pressure;BME280_temperature;BME280_humidity;BME280_pressure;Samples;Min_cycle;Max_cycle;Signal;HPM_P1;HPM_P2
2024/01/11 00:03:14;;;;;;;23.67;21.05;;;5.00;80.00;;;;;;12603251;28;20036;-73
2024/01/11 00:09:16;;;;;;;35.30;32.63;;;4.90;80.00;;;;;;12585379;28;20047;-74
2024/01/11 00:15:17;;;;;;;24.42;22.42;;;4.90;80.10;;;;;;12603004;28;20041;-73
2024/01/11 00:21:19;;;;;;;27.58;24.98;;;4.90;79.90;;;;;;12584613;28;20047;-73
2024/01/11 00:27:20;;;;;;;27.15;24.42;;;4.80;79.80;;;;;;12593772;28;20349;-73
2024/01/11 00:33:22;;;;;;;33.63;30.63;;;4.80;79.90;;;;;;12611322;28;20035;-73
2024/01/11 00:39:24;;;;;;;25.77;23.05;;;4.70;80.00;;;;;;12611047;28;20048;-73
2024/01/11 00:45:25;;;;;;;29.73;25.35;;;4.70;80.00;;;;;;12610716;28;20039;-73
2024/01/11 00:51:27;;;;;;;22.48;20.27;;;4.70;80.10;;;;;;12609434;28;20039;-73
2024/01/11 00:57:28;;;;;;;19.95;17.95;;;4.70;80.10;;;;;;12610101;28;20040;-73
2024/01/11 01:03:30;;;;;;;26.95;23.45;;;4.60;80.10;;;;;;12609846;28;20037;-73
2024/01/11 01:09:32;;;;;;;24.27;21.52;;;4.70;80.10;;;;;;12609641;28;20032;-73
2024/01/11 01:15:33;;;;;;;19.83;17.70;;;4.70;79.80;;;;;;12609308;28;20039;-73
2024/01/11 01:21:35;;;;;;;25.17;22.77;;;4.70;79.90;;;;;;12608250;28;20044;-73
2024/01/11 01:27:38;;;;;;;19.60;17.40;;;4.50;80.00;;;;;;12609480;28;20021;-73
2024/01/11 01:33:40;;;;;;;19.67;17.45;;;4.50;80.10;;;;;;12608275;28;20036;-73
2024/01/11 01:39:42;;;;;;;18.05;16.17;;;4.40;80.10;;;;;;12590131;28;20460;-73
2024/01/11 01:45:43;;;;;;;17.52;14.05;;;4.30;80.10;;;;;;12607713;28;20036;-73
2024/01/11 01:51:45;;;;;;;17.90;16.00;;;4.40;80.20;;;;;;12607318;28;20433;-73
2024/01/11 01:57:48;;;;;;;19.92;15.65;;;4.30;80.10;;;;;;12588740;28;20032;-73
2024/01/11 02:03:51;;;;;;;18.20;14.45;;;4.20;80.10;;;;;;12606814;28;20028;-73
2024/01/11 02:09:54;;;;;;;18.60;14.40;;;4.10;80.40;;;;;;12588740;28;20428;-73
2024/01/11 02:15:55;;;;;;;18.77;13.75;;;4.00;80.50;;;;;;12606135;28;20459;-73
2024/01/11 02:22:05;;;;;;;20.75;16.27;;;4.10;80.50;;;;;;12605902;28;20427;-73
2024/01/11 02:28:08;;;;;;;16.45;13.25;;;4.10;80.50;;;;;;12605348;28;20032;-73
2024/01/11 02:34:10;;;;;;;19.20;15.80;;;4.00;80.60;;;;;;12605370;28;20051;-73
2024/01/11 02:40:13;;;;;;;16.13;12.05;;;4.10;80.50;;;;;;12570914;28;20028;-72
2024/01/11 02:46:15;;;;;;;20.15;15.60;;;4.10;80.40;;;;;;12586910;28;20021;-73
2024/01/11 02:52:17;;;;;;;21.48;16.02;;;3.90;80.60;;;;;;12604976;28;20037;-73
2024/01/11 02:58:19;;;;;;;22.50;15.70;;;3.90;80.70;;;;;;12586129;28;20118;-73
2024/01/11 03:04:20;;;;;;;19.15;13.95;;;3.90;80.60;;;;;;12586758;28;20032;-73
2024/01/11 03:10:22;;;;;;;18.02;13.82;;;4.00;80.60;;;;;;12586729;28;20433;-73
2024/01/11 03:16:23;;;;;;;20.55;14.65;;;3.90;80.50;;;;;;12586604;28;20428;-73
2024/01/11 03:22:25;;;;;;;22.42;17.90;;;3.70;80.50;;;;;;12604108;28;20040;-73
2024/01/11 03:28:27;;;;;;;17.33;14.10;;;3.70;81.00;;;;;;12586227;28;20035;-73
2024/01/11 03:34:30;;;;;;;16.05;11.95;;;3.90;80.70;;;;;;12569262;28;20044;-73
2024/01/11 03:40:31;;;;;;;24.65;16.65;;;4.00;80.40;;;;;;12603545;28;20329;-73
2024/01/11 03:46:33;;;;;;;19.23;15.15;;;4.00;80.50;;;;;;12569243;28;20438;-73
2024/01/11 03:52:34;;;;;;;22.63;16.88;;;4.10;80.40;;;;;;12569311;28;20051;-73
2024/01/11 03:58:39;;;;;;;18.08;14.18;;;4.20;80.10;;;;;;12573173;28;20348;-73
2024/01/11 04:04:41;;;;;;;27.77;18.83;;;4.10;79.80;;;;;;12594088;28;20040;-73
2024/01/11 04:10:43;;;;;;;20.70;15.43;;;4.00;80.40;;;;;;12594540;28;20045;-73
2024/01/11 04:16:45;;;;;;;25.75;19.42;;;4.20;80.10;;;;;;12612237;28;20441;-76
2024/01/11 04:22:46;;;;;;;30.23;22.23;;;4.30;79.90;;;;;;12612014;28;20437;-76
2024/01/11 04:28:50;;;;;;;23.25;20.23;;;4.50;79.50;;;;;;12594134;28;20032;-76
2024/01/11 04:34:51;;;;;;;29.38;22.83;;;4.30;79.40;;;;;;12610967;28;20048;-76
2024/01/11 04:40:53;;;;;;;27.10;23.85;;;4.40;79.60;;;;;;12592577;28;20036;-76
2024/01/11 04:46:54;;;;;;;29.48;22.52;;;4.60;79.20;;;;;;12610350;28;20353;-76
2024/01/11 04:52:56;;;;;;;31.60;28.27;;;4.70;78.70;;;;;;12592887;28;20039;-76
2024/01/11 04:58:58;;;;;;;38.10;34.83;;;4.90;78.50;;;;;;12592451;28;20051;-76
2024/01/11 05:05:00;;;;;;;24.73;21.48;;;4.90;78.40;;;;;;12575535;28;20043;-76
2024/01/11 05:11:02;;;;;;;25.52;21.20;;;4.70;78.20;;;;;;12591104;28;20039;-76
2024/01/11 05:17:04;;;;;;;34.15;27.50;;;4.50;78.30;;;;;;12591688;28;20036;-76
2024/01/11 05:23:06;;;;;;;33.33;30.27;;;4.20;78.90;;;;;;12591163;28;20043;-76
2024/01/11 05:29:07;;;;;;;24.77;21.60;;;4.60;79.50;;;;;;12609376;28;20425;-76
2024/01/11 05:35:10;;;;;;;29.92;23.05;;;4.40;78.70;;;;;;12590271;28;20444;-76
2024/01/11 05:41:11;;;;;;;24.80;19.58;;;4.10;79.80;;;;;;12607272;28;20032;-76
2024/01/11 05:47:13;;;;;;;26.10;19.40;;;4.10;79.30;;;;;;12607878;28;20032;-76
2024/01/11 05:53:14;;;;;;;24.15;19.63;;;3.60;79.60;;;;;;12607666;28;20032;-76
2024/01/11 05:59:16;;;;;;;24.45;19.92;;;3.40;80.70;;;;;;12607277;28;20040;-76
2024/01/11 06:05:18;;;;;;;28.00;20.27;;;3.80;80.40;;;;;;12589648;28;20036;-76
2024/01/11 06:11:19;;;;;;;24.60;19.88;;;3.70;79.90;;;;;;12588316;28;20036;-76
2024/01/11 06:17:21;;;;;;;27.50;24.55;;;3.50;79.90;;;;;;12588835;28;20040;-77
2024/01/11 06:23:25;;;;;;;26.98;18.10;;;3.70;80.70;;;;;;12605416;28;20436;-76
2024/01/11 06:29:27;;;;;;;25.08;22.17;;;4.20;80.20;;;;;;12587784;28;20040;-76
2024/01/11 06:35:28;;;;;;;31.83;28.27;;;4.20;79.70;;;;;;12590858;28;20043;-76
2024/01/11 06:41:30;;;;;;;31.20;22.58;;;4.70;79.90;;;;;;12604282;28;20028;-76
2024/01/11 06:47:32;;;;;;;31.33;27.45;;;4.80;78.90;;;;;;12586819;28;20036;-76
2024/01/11 06:53:33;;;;;;;29.33;26.23;;;4.70;78.60;;;;;;12604469;28;20033;-77
2024/01/11 06:59:35;;;;;;;36.42;30.65;;;4.90;78.30;;;;;;12581727;22;20033;-76
2024/01/11 07:05:37;;;;;;;26.27;23.45;;;5.10;78.40;;;;;;12536954;28;20056;-77
2024/01/11 07:11:38;;;;;;;30.10;24.60;;;5.10;77.90;;;;;;12536000;28;20040;-77
2024/01/11 07:17:40;;;;;;;26.48;23.75;;;5.00;77.70;;;;;;12535948;28;20041;-77
2024/01/11 07:23:42;;;;;;;29.15;26.08;;;5.10;78.30;;;;;;12553728;28;20029;-77
2024/01/11 07:29:44;;;;;;;31.15;26.63;;;5.00;78.00;;;;;;12553805;28;20031;-77
2024/01/11 07:35:46;;;;;;;31.45;28.08;;;4.90;78.00;;;;;;12545656;28;20051;-77
2024/01/11 07:41:48;;;;;;;29.65;25.65;;;5.10;77.70;;;;;;12545585;28;20036;-77
2024/01/11 07:47:50;;;;;;;27.95;25.17;;;5.00;77.30;;;;;;12545006;28;20029;-77
2024/01/11 07:53:51;;;;;;;34.67;30.63;;;4.60;77.70;;;;;;12545673;28;20371;-77
2024/01/11 07:59:53;;;;;;;35.42;31.63;;;4.50;78.90;;;;;;12562788;28;20044;-77
2024/01/11 08:05:55;;;;;;;32.42;28.83;;;4.80;79.00;;;;;;12562259;28;20028;-77
2024/01/11 08:11:57;;;;;;;32.30;28.67;;;5.10;78.50;;;;;;12562086;28;20461;-77
2024/01/11 08:18:00;;;;;;;28.80;25.60;;;5.20;78.40;;;;;;12543383;28;20040;-77
2024/01/11 08:24:02;;;;;;;45.60;41.50;;;5.00;78.60;;;;;;12543670;28;20040;-77
2024/01/11 08:30:05;;;;;;;30.77;26.52;;;4.70;79.20;;;;;;12543611;28;20029;-77
2024/01/11 08:36:07;;;;;;;31.70;26.13;;;4.80;79.70;;;;;;12561025;28;20464;-77
2024/01/11 08:42:08;;;;;;;32.85;25.15;;;4.50;79.60;;;;;;12542239;28;20040;-77
2024/01/11 08:48:10;;;;;;;25.67;21.25;;;4.20;80.40;;;;;;12560455;28;20040;-77
2024/01/11 08:54:12;;;;;;;37.25;34.28;;;4.40;80.60;;;;;;12525938;28;20048;-77
2024/01/11 09:00:17;;;;;;;31.75;28.92;;;4.30;81.20;;;;;;12509202;28;20339;-77
2024/01/11 09:06:18;;;;;;;24.98;22.50;;;4.80;81.40;;;;;;12510154;28;20033;-76
2024/01/11 09:12:20;;;;;;;24.00;21.52;;;4.70;81.00;;;;;;12510114;28;20037;-77
2024/01/11 09:18:22;;;;;;;24.05;21.58;;;4.80;81.50;;;;;;12509791;28;20033;-77
2024/01/11 09:24:24;;;;;;;44.03;40.80;;;4.70;81.60;;;;;;12509079;28;20033;-77
2024/01/11 09:30:27;;;;;;;21.50;19.30;;;4.60;82.00;;;;;;12508498;28;20029;-77
2024/01/11 09:36:28;;;;;;;17.92;16.02;;;4.40;82.10;;;;;;12510104;28;20044;-77
2024/01/11 09:42:30;;;;;;;24.63;20.33;;;4.50;82.70;;;;;;12507689;28;20037;-77
2024/01/11 09:48:38;;;;;;;25.73;22.98;;;4.70;83.10;;;;;;12507253;28;20048;-77
2024/01/11 09:54:42;;;;;;;31.52;28.83;;;5.00;83.40;;;;;;12507237;28;20025;-76
2024/01/11 10:00:44;;;;;;;19.80;17.85;;;5.20;82.80;;;;;;12545712;28;20044;-77
2024/01/11 10:06:47;;;;;;;21.50;19.20;;;5.10;83.10;;;;;;12530872;28;20052;-76
2024/01/11 10:12:49;;;;;;;24.88;22.50;;;5.20;83.20;;;;;;12584093;28;20345;-76
2024/01/11 10:18:54;;;;;;;46.88;43.53;;;5.30;83.80;;;;;;12605257;28;20068;-76
2024/01/11 10:25:26;;;;;;;23.75;21.17;;;5.40;83.30;;;;;;12605057;28;20032;-76
2024/01/11 10:31:30;;;;;;;22.63;20.52;;;5.30;83.60;;;;;;12354658;28;20049;-76
2024/01/11 10:37:33;;;;;;;26.95;22.98;;;5.60;84.30;;;;;;12338380;28;20039;-76
2024/01/11 10:43:38;;;;;;;43.78;40.88;;;5.70;83.70;;;;;;12354303;28;20444;-76
2024/01/11 10:49:41;;;;;;;24.55;22.27;;;5.60;83.60;;;;;;12338474;28;20049;-76
2024/01/11 10:55:44;;;;;;;26.38;24.20;;;5.60;82.40;;;;;;12353222;28;20039;-76
2024/01/11 11:01:47;;;;;;;28.98;26.42;;;5.60;83.10;;;;;;12353728;28;20047;-76
2024/01/11 11:07:50;;;;;;;17.50;14.95;;;5.70;83.00;;;;;;12512999;28;20445;-76
2024/01/11 11:13:53;;;;;;;34.58;32.00;;;6.00;83.60;;;;;;12554614;28;20472;-76
2024/01/11 11:19:55;;;;;;;15.40;13.00;;;6.30;83.30;;;;;;12536667;28;20032;-76
2024/01/11 11:25:57;;;;;;;21.35;19.40;;;6.50;83.90;;;;;;12553385;28;20469;-75
2024/01/11 11:31:59;;;;;;;29.67;27.10;;;7.10;84.00;;;;;;12553497;28;20337;-75
2024/01/11 11:38:02;;;;;;;26.65;24.45;;;7.20;83.70;;;;;;12553636;28;20052;-75
2024/01/11 11:44:05;;;;;;;44.90;41.83;;;7.10;83.10;;;;;;12535767;28;20041;-75
2024/01/11 11:50:11;;;;;;;32.13;29.60;;;7.20;82.80;;;;;;12553183;28;20032;-75
2024/01/11 11:56:16;;;;;;;42.08;39.38;;;7.10;83.10;;;;;;12554540;28;20040;-75
2024/01/11 12:02:19;;;;;;;55.08;51.65;;;7.20;83.30;;;;;;12585035;28;20166;-75
2024/01/11 12:08:21;;;;;;;91.57;87.25;;;7.60;84.10;;;;;;12589984;28;20025;-75
2024/01/11 12:14:24;;;;;;;121.53;116.00;;;7.80;83.80;;;;;;12535084;28;20040;-75
2024/01/11 12:20:26;;;;;;;125.13;119.53;;;7.70;83.80;;;;;;12539980;28;20029;-75
2024/01/11 12:26:28;;;;;;;91.65;87.05;;;7.70;84.30;;;;;;12543493;28;20039;-75
2024/01/11 12:32:30;;;;;;;79.63;75.47;;;7.80;83.80;;;;;;12561125;28;20029;-75
2024/01/11 12:38:33;;;;;;;51.65;48.20;;;7.60;83.40;;;;;;12560744;28;20029;-75
2024/01/11 12:44:37;;;;;;;51.72;48.42;;;7.40;83.50;;;;;;12560433;28;20036;-75
2024/01/11 12:50:39;;;;;;;53.00;49.85;;;7.50;84.10;;;;;;12542567;28;20437;-75
2024/01/11 12:56:42;;;;;;;57.17;53.50;;;7.70;84.60;;;;;;12542604;28;20052;-75
2024/01/11 13:02:46;;;;;;;92.15;87.38;;;8.10;84.50;;;;;;12558811;28;20029;-75
2024/01/11 13:08:47;;;;;;;111.32;105.70;;;8.20;83.70;;;;;;12541622;28;20033;-75
2024/01/11 13:14:50;;;;;;;137.63;130.88;;;8.00;84.20;;;;;;12525593;28;20025;-75
2024/01/11 13:20:52;;;;;;;160.98;153.32;;;8.00;84.70;;;;;;12558791;28;20083;-75
2024/01/11 13:26:55;;;;;;;93.72;88.60;;;8.00;84.20;;;;;;12558551;28;20028;-75
2024/01/11 13:32:57;;;;;;;90.63;86.07;;;8.00;83.90;;;;;;12557913;28;20036;-75
2024/01/11 13:38:59;;;;;;;132.82;126.80;;;8.10;83.90;;;;;;12557921;28;20029;-75
2024/01/11 13:45:02;;;;;;;71.25;67.03;;;8.20;83.80;;;;;;12557633;28;20033;-75
2024/01/11 13:51:04;;;;;;;186.18;177.77;;;8.20;84.30;;;;;;12557383;28;20032;-75
2024/01/11 13:57:06;;;;;;;179.65;171.82;;;8.30;84.40;;;;;;12557029;28;20421;-75
2024/01/11 14:03:08;;;;;;;187.68;179.63;;;8.40;84.60;;;;;;12551832;28;20323;-75
2024/01/11 14:09:10;;;;;;;192.90;184.68;;;8.40;85.00;;;;;;12507494;28;20346;-75
2024/01/11 14:15:12;;;;;;;175.02;166.93;;;8.50;85.50;;;;;;12489163;28;20036;-75
2024/01/11 14:21:13;;;;;;;211.45;202.50;;;8.50;85.40;;;;;;12506458;28;20034;-75
2024/01/11 14:27:15;;;;;;;162.27;155.32;;;8.80;85.40;;;;;;12506277;28;20037;-75
2024/01/11 14:33:19;;;;;;;79.68;76.07;;;9.20;84.90;;;;;;12521333;28;20033;-73
2024/01/11 14:39:23;;;;;;;43.40;40.85;;;9.30;85.10;;;;;;12520874;28;20040;-73
2024/01/11 14:45:26;;;;;;;17.67;16.13;;;9.50;85.40;;;;;;12504907;28;20044;-73
2024/01/11 14:51:30;;;;;;;16.73;15.27;;;9.80;84.90;;;;;;12505275;28;20461;-73
2024/01/11 14:57:32;;;;;;;60.03;56.90;;;9.40;85.40;;;;;;12528958;23;20482;-73
2024/01/11 15:03:34;;;;;;;118.72;113.78;;;8.80;86.50;;;;;;12652920;28;20066;-73
2024/01/11 15:09:37;;;;;;;148.50;141.88;;;8.60;87.10;;;;;;12656140;28;20387;-75
2024/01/11 15:15:39;;;;;;;152.32;145.88;;;8.50;87.50;;;;;;12653878;28;20428;-73
2024/01/11 15:21:40;;;;;;;165.88;158.55;;;8.60;87.10;;;;;;12652568;28;20429;-71
2024/01/11 15:27:42;;;;;;;163.77;157.02;;;8.90;87.20;;;;;;12653690;28;20028;-71
2024/01/11 15:33:45;;;;;;;182.45;174.63;;;8.90;86.50;;;;;;12635725;28;20047;-73
2024/01/11 15:39:47;;;;;;;126.30;120.50;;;8.60;86.80;;;;;;12652121;28;20032;-74
2024/01/11 15:45:49;;;;;;;123.80;117.75;;;8.40;86.70;;;;;;12653283;28;20460;-74
2024/01/11 15:51:54;;;;;;;49.88;46.95;;;8.20;86.70;;;;;;12653677;28;20467;-74
2024/01/11 15:57:58;;;;;;;26.23;24.25;;;8.20;86.60;;;;;;12661855;28;20044;-75
2024/01/11 16:04:04;;;;;;;24.35;22.35;;;8.10;86.30;;;;;;12661320;28;20036;-74
2024/01/11 16:10:06;;;;;;;44.80;41.88;;;8.10;85.80;;;;;;12662260;28;20036;-74
2024/01/11 16:16:07;;;;;;;25.80;23.55;;;8.10;85.60;;;;;;12660892;28;20032;-74
2024/01/11 16:22:09;;;;;;;21.58;19.35;;;7.80;85.40;;;;;;12662332;28;20028;-74
2024/01/11 16:28:11;;;;;;;21.98;19.88;;;7.80;85.30;;;;;;12661337;28;20043;-74
2024/01/11 16:34:13;;;;;;;21.73;19.80;;;7.80;85.20;;;;;;12659942;28;20035;-74
2024/01/11 16:40:15;;;;;;;19.52;17.60;;;7.70;84.70;;;;;;12660379;28;20039;-74
2024/01/11 16:46:18;;;;;;;24.15;21.67;;;7.70;84.80;;;;;;12659374;28;20039;-74
2024/01/11 16:52:20;;;;;;;23.73;21.33;;;7.80;84.40;;;;;;12660331;28;20032;-74
2024/01/11 16:58:22;;;;;;;29.60;26.25;;;7.70;84.50;;;;;;12659045;28;20048;-72
2024/01/11 17:04:23;;;;;;;22.23;19.90;;;7.60;84.20;;;;;;12658177;28;20059;-72
2024/01/11 17:10:25;;;;;;;21.67;19.58;;;7.60;84.10;;;;;;12658428;28;20028;-72
2024/01/11 17:16:27;;;;;;;21.85;19.50;;;7.70;83.60;;;;;;12658135;28;20047;-72
2024/01/11 17:22:29;;;;;;;22.30;19.95;;;7.70;83.20;;;;;;12640883;28;20051;-72
2024/01/11 17:28:30;;;;;;;24.08;19.95;;;7.70;82.90;;;;;;12640629;28;20039;-72
2024/01/11 17:34:32;;;;;;;20.73;18.55;;;7.60;82.70;;;;;;12657243;28;20040;-72
2024/01/11 17:40:35;;;;;;;24.00;21.50;;;7.60;82.50;;;;;;12656836;28;20436;-72
2024/01/11 17:46:36;;;;;;;21.58;19.25;;;7.60;82.10;;;;;;12657771;28;20440;-72
2024/01/11 17:52:38;;;;;;;25.83;23.10;;;7.60;81.80;;;;;;12658410;28;20058;-72
2024/01/11 17:58:40;;;;;;;29.23;26.20;;;7.70;81.50;;;;;;12655635;28;20043;-72
2024/01/11 18:04:43;;;;;;;31.92;27.48;;;7.60;81.40;;;;;;12656834;28;20039;-74
2024/01/11 18:10:44;;;;;;;31.08;23.77;;;7.50;81.30;;;;;;12656549;28;20024;-74
2024/01/11 18:16:46;;;;;;;30.17;24.95;;;7.50;81.20;;;;;;12654005;28;20365;-74
2024/01/11 18:22:48;;;;;;;31.98;27.92;;;7.40;81.00;;;;;;12656077;28;20295;-74
2024/01/11 18:28:50;;;;;;;30.42;26.08;;;7.30;80.90;;;;;;12656460;28;20024;-74
2024/01/11 18:34:52;;;;;;;25.67;22.30;;;7.30;80.50;;;;;;12654321;28;20437;-72
2024/01/11 18:40:53;;;;;;;31.13;22.23;;;7.20;80.30;;;;;;12654006;28;20034;-72
2024/01/11 18:46:55;;;;;;;27.25;24.30;;;7.20;80.10;;;;;;12654480;28;20046;-72
2024/01/11 18:52:57;;;;;;;30.90;21.35;;;7.20;79.70;;;;;;12654360;28;20027;-72
2024/01/11 18:59:00;;;;;;;50.10;37.60;;;7.20;79.50;;;;;;12654469;28;20047;-72
2024/01/11 19:05:01;;;;;;;29.23;24.60;;;7.20;79.50;;;;;;12653172;28;20040;-72
2024/01/11 19:11:03;;;;;;;28.25;24.58;;;7.10;79.30;;;;;;12654151;28;20043;-72
2024/01/11 19:17:06;;;;;;;33.17;27.33;;;7.10;79.30;;;;;;12652813;28;20376;-72
2024/01/11 19:23:08;;;;;;;34.75;27.38;;;7.00;79.20;;;;;;12652792;28;20040;-72
2024/01/11 19:29:09;;;;;;;41.17;29.00;;;7.00;79.30;;;;;;12659399;28;20341;-73
2024/01/11 19:35:11;;;;;;;35.75;28.38;;;7.00;79.10;;;;;;12663977;28;20042;-72
2024/01/11 19:41:19;;;;;;;32.33;24.67;;;6.90;78.90;;;;;;12663709;28;20028;-72
2024/01/11 19:47:21;;;;;;;36.80;28.52;;;6.70;79.40;;;;;;12661618;28;20028;-72
2024/01/11 19:53:23;;;;;;;45.08;31.33;;;6.70;79.50;;;;;;12663294;28;20440;-72
2024/01/11 19:59:25;;;;;;;44.60;31.13;;;6.80;79.40;;;;;;12662899;28;20040;-73
2024/01/11 20:05:26;;;;;;;41.40;29.05;;;6.80;79.20;;;;;;12662566;28;20039;-73
2024/01/11 20:11:28;;;;;;;41.50;29.73;;;6.70;79.10;;;;;;12661218;28;20031;-72
2024/01/11 20:17:30;;;;;;;43.60;39.22;;;6.50;79.10;;;;;;12662065;28;20028;-72
2024/01/11 20:23:32;;;;;;;38.80;33.40;;;6.40;79.30;;;;;;12660459;28;20024;-75
2024/01/11 20:29:33;;;;;;;54.42;48.83;;;6.30;79.20;;;;;;12661482;28;20027;-76
2024/01/11 20:35:35;;;;;;;43.60;29.88;;;6.40;79.60;;;;;;12660965;28;20040;-75
2024/01/11 20:41:42;;;;;;;58.78;41.70;;;6.50;79.30;;;;;;12659626;28;20024;-75
2024/01/11 20:47:43;;;;;;;41.17;36.28;;;6.40;79.30;;;;;;12659434;28;20040;-76
2024/01/11 20:53:46;;;;;;;48.63;38.58;;;6.50;79.10;;;;;;12660355;28;20035;-75
2024/01/11 20:59:48;;;;;;;61.17;54.97;;;6.40;79.10;;;;;;12658784;28;20086;-77
2024/01/11 21:05:53;;;;;;;45.63;35.22;;;6.50;78.70;;;;;;12658476;28;20039;-77
2024/01/11 21:11:55;;;;;;;58.85;52.90;;;6.40;78.40;;;;;;12658401;28;20348;-77
2024/01/11 21:17:57;;;;;;;67.65;51.20;;;6.20;78.70;;;;;;12659217;28;20028;-77
2024/01/11 21:24:01;;;;;;;70.35;52.67;;;6.20;78.90;;;;;;12658779;28;20356;-77
2024/01/11 21:30:04;;;;;;;55.45;43.75;;;6.30;79.10;;;;;;12659433;28;20094;-75
2024/01/11 21:36:06;;;;;;;48.20;42.95;;;6.10;79.00;;;;;;12657080;28;20436;-76
2024/01/11 21:42:08;;;;;;;52.33;45.88;;;5.70;79.60;;;;;;12656819;28;20032;-76
2024/01/11 21:48:10;;;;;;;50.55;45.03;;;5.90;79.60;;;;;;12639972;28;20348;-76
2024/01/11 21:54:12;;;;;;;63.20;56.83;;;5.70;79.50;;;;;;12639643;28;20040;-76
2024/01/11 22:00:14;;;;;;;50.53;45.38;;;5.70;79.60;;;;;;12657037;28;20039;-76
2024/01/11 22:06:15;;;;;;;50.20;43.13;;;5.70;79.30;;;;;;12656766;28;20024;-76
2024/01/11 22:12:19;;;;;;;58.75;52.80;;;5.70;79.00;;;;;;12656576;28;20428;-76
2024/01/11 22:18:20;;;;;;;48.63;44.05;;;5.60;79.20;;;;;;12656343;28;20034;-76
2024/01/11 22:24:22;;;;;;;54.10;48.45;;;5.60;79.00;;;;;;12638368;28;20040;-76
2024/01/11 22:30:24;;;;;;;61.30;55.08;;;5.20;79.50;;;;;;12637853;28;20028;-76
2024/01/11 22:36:26;;;;;;;51.35;46.63;;;5.10;80.10;;;;;;12655529;28;20459;-76
2024/01/11 22:42:31;;;;;;;51.72;46.97;;;5.20;80.00;;;;;;12655284;28;20050;-76
2024/01/11 22:48:33;;;;;;;54.15;48.88;;;5.30;79.70;;;;;;12637190;28;20040;-76
2024/01/11 22:55:21;;;;;;;49.40;44.50;;;5.40;79.50;;;;;;12620667;28;20032;-76
2024/01/11 23:01:23;;;;;;;48.08;43.30;;;5.60;80.00;;;;;;12627560;22;20036;-76
2024/01/11 23:07:30;;;;;;;50.38;45.70;;;5.60;79.90;;;;;;12636205;28;20368;-76
2024/01/11 23:13:33;;;;;;;47.58;43.17;;;5.00;79.90;;;;;;12636452;28;20043;-76
2024/01/11 23:19:35;;;;;;;43.03;38.78;;;4.80;80.10;;;;;;12654053;28;20039;-76
2024/01/11 23:25:37;;;;;;;47.13;42.42;;;4.70;80.60;;;;;;12635998;28;20325;-76
2024/01/11 23:31:38;;;;;;;43.92;39.88;;;4.90;80.60;;;;;;12636084;28;20095;-76
2024/01/11 23:37:40;;;;;;;39.88;35.72;;;4.90;79.90;;;;;;12654434;28;20024;-76
2024/01/11 23:43:41;;;;;;;66.00;60.65;;;4.60;80.20;;;;;;12653444;28;20028;-75
2024/01/11 23:49:43;;;;;;;43.50;39.17;;;4.50;80.80;;;;;;12653388;28;20030;-76
2024/01/11 23:55:46;;;;;;;47.92;42.45;;;4.70;80.60;;;;;;12635325;28;20035;-76
